createdAt,value
2022-11-12T00:00:10.571Z,21.38
2022-11-12T00:02:59.329Z,22.52
2022-11-12T00:05:46.864Z,20.50
2022-11-12T00:08:34.136Z,20.23
2022-11-12T00:11:21.438Z,20.08
2022-11-12T00:14:08.433Z,18.80
2022-11-12T00:16:55.935Z,20.13
2022-11-12T00:19:44.967Z,20.52
2022-11-12T00:22:32.420Z,20.25
2022-11-12T00:25:19.902Z,20.25
2022-11-12T00:28:08.741Z,20.70
2022-11-12T00:30:56.359Z,18.70
2022-11-12T00:33:44.008Z,18.80
2022-11-12T00:36:32.521Z,21.83
2022-11-12T00:39:20.143Z,22.15
2022-11-12T00:42:07.609Z,19.73
2022-11-12T00:44:54.779Z,20.80
2022-11-12T00:47:41.813Z,20.75
2022-11-12T00:50:29.228Z,20.95
2022-11-12T00:53:18.036Z,20.80
2022-11-12T00:56:06.640Z,20.20
2022-11-12T00:58:54.480Z,20.55
2022-11-12T01:01:42.303Z,19.80
2022-11-12T01:04:30.056Z,20.20
2022-11-12T01:07:17.487Z,20.13
2022-11-12T01:10:07.164Z,19.52
2022-11-12T01:12:54.886Z,19.35
2022-11-12T01:15:43.650Z,20.23
2022-11-12T01:18:30.990Z,18.58
2022-11-12T01:21:18.158Z,19.55
2022-11-12T01:24:06.203Z,19.08
2022-11-12T01:26:54.822Z,18.33
2022-11-12T01:29:42.233Z,18.13
2022-11-12T01:32:29.564Z,18.48
2022-11-12T01:35:17.226Z,18.63
2022-11-12T01:38:04.079Z,20.77
2022-11-12T01:40:51.240Z,19.73
2022-11-12T01:43:40.176Z,18.95
2022-11-12T01:46:29.759Z,18.70
2022-11-12T01:49:20.986Z,18.15
2022-11-12T01:52:14.029Z,19.40
2022-11-12T01:55:05.173Z,18.42
2022-11-12T01:57:56.085Z,19.65
2022-11-12T02:00:45.425Z,17.52
2022-11-12T02:03:33.246Z,17.67
2022-11-12T02:06:20.993Z,17.58
2022-11-12T02:09:08.143Z,18.77
2022-11-12T02:11:55.929Z,17.48
2022-11-12T02:14:42.336Z,17.30
2022-11-12T02:17:31.223Z,17.88
2022-11-12T02:20:19.119Z,17.65
2022-11-12T02:23:08.611Z,18.40
2022-11-12T02:25:56.005Z,19.27
2022-11-12T02:28:43.425Z,17.80
2022-11-12T02:31:30.851Z,18.25
2022-11-12T02:34:18.181Z,18.52
2022-11-12T02:37:05.234Z,17.63
2022-11-12T02:39:53.813Z,17.77
2022-11-12T02:42:41.357Z,18.05
2022-11-12T02:45:29.100Z,16.83
2022-11-12T02:48:19.149Z,17.60
2022-11-12T02:53:53.809Z,18.02
2022-11-12T02:56:43.235Z,17.80
2022-11-12T02:59:30.583Z,18.52
2022-11-12T03:02:17.928Z,17.00
2022-11-12T03:05:04.934Z,17.25
2022-11-12T03:07:52.352Z,17.15
2022-11-12T03:10:40.599Z,17.50
2022-11-12T03:13:29.426Z,17.95
2022-11-12T03:16:17.000Z,18.08
2022-11-12T03:19:04.394Z,18.25
2022-11-12T03:21:51.536Z,17.75
2022-11-12T03:24:38.626Z,17.10
2022-11-12T03:27:26.208Z,18.67
2022-11-12T03:30:14.884Z,17.63
2022-11-12T03:33:02.055Z,18.25
2022-11-12T03:35:49.487Z,17.40
2022-11-12T03:38:36.652Z,18.35
2022-11-12T03:41:23.792Z,17.83
2022-11-12T03:44:10.693Z,17.58
2022-11-12T03:46:59.459Z,17.35
2022-11-12T03:49:46.889Z,17.55
2022-11-12T03:52:34.237Z,17.52
2022-11-12T03:55:23.474Z,18.75
2022-11-12T03:58:10.899Z,17.27
2022-11-12T04:00:58.466Z,17.58
2022-11-12T04:03:47.773Z,17.77
2022-11-12T04:06:52.622Z,16.73
2022-11-12T04:09:40.035Z,16.67
2022-11-12T04:12:44.457Z,16.88
2022-11-12T04:15:32.038Z,17.00
2022-11-12T04:18:42.126Z,15.57
2022-11-12T04:21:50.754Z,16.00
2022-11-12T04:24:56.415Z,16.08
2022-11-12T04:27:43.483Z,17.15
2022-11-12T04:30:29.624Z,18.00
2022-11-12T04:33:16.637Z,17.10
2022-11-12T04:36:03.773Z,19.23
2022-11-12T04:38:52.390Z,18.40
2022-11-12T04:41:57.218Z,19.25
2022-11-12T04:45:02.814Z,19.88
2022-11-12T04:47:50.298Z,20.60
2022-11-12T04:50:38.036Z,22.65
2022-11-12T04:53:25.977Z,21.25
2022-11-12T04:56:14.151Z,22.45
2022-11-12T04:59:01.413Z,22.75
2022-11-12T05:01:48.733Z,21.95
2022-11-12T05:04:36.112Z,22.70
2022-11-12T05:07:23.701Z,22.75
2022-11-12T05:10:11.432Z,22.48
2022-11-12T05:13:00.384Z,23.45
2022-11-12T05:15:47.814Z,23.77
2022-11-12T05:18:34.831Z,23.58
2022-11-12T05:21:43.496Z,23.17
2022-11-12T05:24:41.679Z,22.15
2022-11-12T05:27:29.819Z,23.20
2022-11-12T05:30:18.552Z,22.08
2022-11-12T05:33:05.936Z,22.23
2022-11-12T05:35:52.914Z,22.73
2022-11-12T05:38:40.225Z,22.45
2022-11-12T05:41:32.840Z,24.30
2022-11-12T05:44:27.033Z,22.88
2022-11-12T05:47:15.763Z,22.83
2022-11-12T05:50:03.178Z,23.60
2022-11-12T05:52:50.722Z,24.55
2022-11-12T05:55:37.965Z,26.58
2022-11-12T05:58:25.212Z,25.08
2022-11-12T06:01:12.586Z,25.52
2022-11-12T06:04:01.261Z,25.95
2022-11-12T06:06:48.830Z,26.45
2022-11-12T06:09:36.278Z,26.02
2022-11-12T06:12:23.572Z,27.60
2022-11-12T06:15:11.217Z,25.75
2022-11-12T06:17:58.766Z,27.33
2022-11-12T06:21:07.470Z,29.52
2022-11-12T06:23:57.179Z,28.25
2022-11-12T06:26:44.860Z,30.88
2022-11-12T06:29:31.939Z,31.00
2022-11-12T06:32:19.179Z,32.45
2022-11-12T06:35:06.697Z,31.35
2022-11-12T06:37:57.038Z,31.00
2022-11-12T06:40:44.491Z,33.38
2022-11-12T06:43:33.268Z,34.05
2022-11-12T06:46:20.651Z,34.80
2022-11-12T06:49:08.033Z,33.33
2022-11-12T06:51:55.536Z,35.88
2022-11-12T06:54:44.087Z,35.83
2022-11-12T06:57:31.457Z,36.97
2022-11-12T07:00:19.838Z,36.05
2022-11-12T07:03:08.490Z,36.88
2022-11-12T07:05:56.067Z,38.33
2022-11-12T07:08:43.774Z,39.15
2022-11-12T07:11:32.868Z,39.58
2022-11-12T07:14:20.642Z,35.63
2022-11-12T07:17:08.045Z,36.00
2022-11-12T07:20:00.730Z,36.53
2022-11-12T07:22:50.728Z,33.53
2022-11-12T07:25:38.173Z,36.60
2022-11-12T07:28:27.208Z,34.65
2022-11-12T07:31:16.138Z,36.35
2022-11-12T07:34:03.739Z,38.45
2022-11-12T07:36:52.141Z,39.10
2022-11-12T07:39:39.589Z,36.30
2022-11-12T07:42:26.878Z,40.00
2022-11-12T07:45:15.386Z,38.30
2022-11-12T07:48:02.664Z,37.83
2022-11-12T07:50:49.929Z,40.63
2022-11-12T07:53:37.188Z,38.53
2022-11-12T07:56:26.063Z,37.53
2022-11-12T07:59:12.887Z,37.58
2022-11-12T08:02:01.718Z,38.80
2022-11-12T08:04:49.154Z,37.22
2022-11-12T08:07:36.630Z,39.22
2022-11-12T08:10:23.865Z,37.58
2022-11-12T08:13:11.667Z,38.83
2022-11-12T08:15:59.271Z,36.05
2022-11-12T08:18:48.661Z,42.22
2022-11-12T08:21:36.457Z,38.55
2022-11-12T08:24:23.789Z,39.60
2022-11-12T08:27:10.854Z,37.15
2022-11-12T08:29:58.016Z,34.75
2022-11-12T08:32:45.133Z,38.83
2022-11-12T08:35:34.697Z,36.92
2022-11-12T08:38:22.378Z,37.23
2022-11-12T08:41:10.960Z,36.20
2022-11-12T08:43:58.410Z,37.30
2022-11-12T08:46:45.895Z,40.55
2022-11-12T08:49:33.241Z,38.45
2022-11-12T08:52:21.756Z,36.13
2022-11-12T08:55:09.907Z,36.88
2022-11-12T08:57:59.383Z,37.30
2022-11-12T09:00:46.810Z,39.53
2022-11-12T09:03:34.167Z,38.15
2022-11-12T09:06:22.159Z,37.80
2022-11-12T09:09:11.352Z,36.00
2022-11-12T09:11:58.855Z,39.38
2022-11-12T09:14:46.400Z,41.35
2022-11-12T09:17:35.321Z,35.65
2022-11-12T09:20:22.760Z,40.00
2022-11-12T09:23:11.672Z,39.72
2022-11-12T09:26:00.183Z,41.65
2022-11-12T09:28:47.868Z,42.70
2022-11-12T09:31:35.560Z,40.13
2022-11-12T09:34:22.784Z,40.60
2022-11-12T09:37:09.981Z,42.13
2022-11-12T09:39:56.707Z,41.83
2022-11-12T09:42:46.798Z,42.10
2022-11-12T09:45:34.359Z,43.35
2022-11-12T09:48:25.896Z,44.83
2022-11-12T09:51:18.599Z,42.75
2022-11-12T09:54:13.665Z,40.95
2022-11-12T09:57:01.078Z,40.75
2022-11-12T09:59:49.739Z,42.05
2022-11-12T10:02:40.402Z,41.65
2022-11-12T10:05:30.790Z,40.45
2022-11-12T10:08:30.577Z,39.28
2022-11-12T10:12:10.258Z,40.50
2022-11-12T10:15:37.112Z,43.42
2022-11-12T10:18:34.024Z,42.47
2022-11-12T10:21:25.560Z,40.50
2022-11-12T10:24:13.126Z,42.38
2022-11-12T10:27:00.863Z,42.38
2022-11-12T10:29:52.247Z,40.08
2022-11-12T10:32:44.238Z,44.97
2022-11-12T10:35:31.103Z,42.25
2022-11-12T10:38:22.018Z,44.20
2022-11-12T10:41:20.789Z,40.60
2022-11-12T10:44:10.143Z,42.80
2022-11-12T10:47:17.538Z,41.65
2022-11-12T10:50:19.510Z,41.05
2022-11-12T10:53:08.575Z,42.05
2022-11-12T10:55:59.885Z,39.30
2022-11-12T10:58:47.062Z,42.20
2022-11-12T11:01:35.897Z,42.03
2022-11-12T11:04:31.424Z,43.40
2022-11-12T11:07:24.620Z,42.25
2022-11-12T11:10:24.467Z,42.13
2022-11-12T11:13:20.099Z,38.00
2022-11-12T11:16:09.018Z,43.00
2022-11-12T11:18:58.201Z,40.92
2022-11-12T11:21:59.968Z,43.45
2022-11-12T11:24:54.971Z,41.25
2022-11-12T11:27:50.684Z,42.05
2022-11-12T11:30:40.301Z,35.90
2022-11-12T11:33:35.743Z,40.25
2022-11-12T11:36:26.717Z,38.00
2022-11-12T11:39:20.989Z,35.47
2022-11-12T11:42:20.689Z,35.47
2022-11-12T11:45:13.547Z,36.97
2022-11-12T11:48:10.055Z,34.80
2022-11-12T11:51:01.447Z,35.10
2022-11-12T11:53:53.497Z,36.47
2022-11-12T11:56:43.992Z,32.05
2022-11-12T11:59:42.245Z,32.55
2022-11-12T12:02:50.842Z,31.92
2022-11-12T12:05:43.157Z,32.35
2022-11-12T12:08:37.914Z,30.63
2022-11-12T12:11:31.533Z,29.90
2022-11-12T12:14:27.534Z,29.77
2022-11-12T12:17:27.817Z,30.50
2022-11-12T12:20:22.158Z,28.98
2022-11-12T12:23:25.173Z,27.98
2022-11-12T12:26:16.078Z,27.48
2022-11-12T12:29:07.635Z,23.55
2022-11-12T12:31:59.623Z,24.05
2022-11-12T12:34:50.144Z,24.02
2022-11-12T12:37:40.256Z,23.40
2022-11-12T12:40:35.616Z,22.23
2022-11-12T12:43:28.595Z,22.00
2022-11-12T12:46:17.075Z,22.95
2022-11-12T12:49:05.604Z,20.80
2022-11-12T12:51:55.891Z,21.20
2022-11-12T12:54:59.611Z,21.05
2022-11-12T12:57:46.992Z,21.05
2022-11-12T13:00:36.830Z,21.13
2022-11-12T13:03:54.666Z,20.38
2022-11-12T13:06:54.899Z,19.70
2022-11-12T13:09:42.147Z,21.48
2022-11-12T13:13:02.297Z,20.70
2022-11-12T13:15:50.320Z,21.98
2022-11-12T13:18:59.675Z,23.35
2022-11-12T13:21:46.851Z,24.20
2022-11-12T13:25:04.440Z,24.55
2022-11-12T13:28:08.533Z,28.45
2022-11-12T13:31:02.603Z,27.98
2022-11-12T13:33:49.880Z,28.52
2022-11-12T13:36:37.029Z,28.95
2022-11-12T13:39:24.563Z,29.52
2022-11-12T13:42:33.326Z,30.05
2022-11-12T13:45:23.624Z,30.52
2022-11-12T13:51:00.018Z,32.35
2022-11-12T13:53:47.002Z,32.47
2022-11-12T13:56:35.506Z,32.00
2022-11-12T13:59:25.122Z,31.98
2022-11-12T14:02:22.103Z,32.22
2022-11-12T14:05:15.784Z,32.33
2022-11-12T14:08:30.347Z,32.63
2022-11-12T14:11:36.652Z,33.15
2022-11-12T14:14:34.762Z,32.30
2022-11-12T14:17:27.954Z,33.28
2022-11-12T14:20:26.425Z,32.35
2022-11-12T14:23:17.666Z,34.85
2022-11-12T14:26:07.343Z,34.97
2022-11-12T14:28:57.651Z,38.05
2022-11-12T14:34:35.168Z,35.72
2022-11-12T14:37:37.318Z,33.22
2022-11-12T14:40:29.937Z,33.30
2022-11-12T14:43:34.883Z,33.53
2022-11-12T14:46:25.575Z,33.65
2022-11-12T14:49:20.117Z,33.35
2022-11-12T14:52:09.714Z,33.60
2022-11-12T14:54:59.853Z,34.13
2022-11-12T14:57:47.210Z,32.72
2022-11-12T15:00:44.694Z,33.80
2022-11-12T15:03:33.471Z,32.30
2022-11-12T15:06:30.380Z,32.67
2022-11-12T15:09:21.754Z,32.08
2022-11-12T15:12:11.283Z,33.53
2022-11-12T15:15:08.792Z,31.85
2022-11-12T15:17:59.987Z,33.22
2022-11-12T15:20:47.226Z,32.72
2022-11-12T15:23:35.674Z,32.83
2022-11-12T15:26:26.691Z,32.25
2022-11-12T15:29:20.346Z,35.80
2022-11-12T15:32:32.673Z,33.88
2022-11-12T15:35:39.353Z,33.55
2022-11-12T15:38:28.546Z,33.35
2022-11-12T15:41:25.208Z,31.83
2022-11-12T15:44:13.210Z,32.67
2022-11-12T15:47:00.610Z,32.33
2022-11-12T15:49:49.523Z,32.40
2022-11-12T15:52:36.302Z,33.67
2022-11-12T15:55:23.330Z,31.02
2022-11-12T15:58:16.457Z,32.35
2022-11-12T16:01:03.702Z,31.85
2022-11-12T16:03:50.706Z,32.47
2022-11-12T16:06:37.681Z,29.63
2022-11-12T16:09:24.707Z,29.23
2022-11-12T16:12:12.264Z,26.40
2022-11-12T16:15:01.437Z,28.35
2022-11-12T16:17:49.417Z,27.63
2022-11-12T16:20:37.026Z,27.08
2022-11-12T16:23:23.780Z,26.98
2022-11-12T16:26:13.447Z,27.75
2022-11-12T16:29:00.686Z,29.05
2022-11-12T16:31:48.707Z,29.15
2022-11-12T16:34:35.680Z,30.00
2022-11-12T16:37:22.520Z,27.67
2022-11-12T16:40:14.420Z,27.33
2022-11-12T16:43:01.467Z,26.20
2022-11-12T16:45:48.276Z,27.90
2022-11-12T16:48:38.176Z,28.65
2022-11-12T16:51:25.484Z,28.65
2022-11-12T16:54:12.483Z,28.02
2022-11-12T16:56:59.390Z,29.30
2022-11-12T16:59:46.430Z,27.88
2022-11-12T17:02:35.169Z,28.08
2022-11-12T17:05:26.599Z,27.60
2022-11-12T17:08:14.601Z,29.38
2022-11-12T17:11:07.281Z,29.45
2022-11-12T17:13:53.999Z,27.08
2022-11-12T17:16:40.718Z,28.40
2022-11-12T17:19:27.665Z,28.58
2022-11-12T17:22:16.108Z,26.10
2022-11-12T17:25:04.119Z,25.35
2022-11-12T17:27:51.742Z,26.50
2022-11-12T17:30:38.817Z,24.77
2022-11-12T17:33:26.210Z,25.73
2022-11-12T17:36:15.141Z,27.67
2022-11-12T17:39:03.749Z,27.27
2022-11-12T17:41:51.120Z,27.05
2022-11-12T17:44:38.277Z,27.90
2022-11-12T17:47:25.130Z,26.45
2022-11-12T17:50:11.658Z,25.88
2022-11-12T17:52:58.385Z,26.48
2022-11-12T17:55:46.492Z,27.45
2022-11-12T17:58:33.994Z,28.05
2022-11-12T18:01:22.719Z,29.60
2022-11-12T18:04:11.204Z,27.52
2022-11-12T18:06:58.326Z,28.85
2022-11-12T18:09:45.340Z,30.52
2022-11-12T18:12:33.740Z,31.08
2022-11-12T18:15:20.531Z,33.50
2022-11-12T18:18:07.765Z,33.75
2022-11-12T18:20:55.132Z,33.25
2022-11-12T18:23:44.030Z,35.33
2022-11-12T18:26:31.112Z,36.97
2022-11-12T18:29:19.557Z,38.40
2022-11-12T18:32:06.061Z,36.53
2022-11-12T18:34:52.970Z,37.58
2022-11-12T18:37:40.289Z,35.53
2022-11-12T18:40:27.525Z,38.55
2022-11-12T18:43:14.476Z,34.97
2022-11-12T18:46:02.599Z,37.65
2022-11-12T18:48:50.339Z,35.70
2022-11-12T18:51:37.901Z,37.38
2022-11-12T18:54:25.463Z,36.22
2022-11-12T18:57:12.471Z,37.67
2022-11-12T18:59:59.724Z,37.88
2022-11-12T19:02:48.224Z,40.42
2022-11-12T19:05:35.674Z,39.33
2022-11-12T19:08:22.881Z,42.25
2022-11-12T19:11:10.823Z,40.45
2022-11-12T19:13:57.981Z,42.05
2022-11-12T19:16:45.155Z,40.47
2022-11-12T19:19:33.650Z,43.33
2022-11-12T19:22:20.537Z,44.65
2022-11-12T19:25:08.320Z,47.67
2022-11-12T19:27:56.398Z,43.35
2022-11-12T19:30:43.599Z,44.33
2022-11-12T19:33:30.250Z,47.03
2022-11-12T19:36:20.661Z,45.85
2022-11-12T19:39:07.966Z,47.92
2022-11-12T19:41:55.136Z,50.30
2022-11-12T19:44:41.865Z,53.70
2022-11-12T19:47:28.581Z,53.80
2022-11-12T19:50:15.517Z,54.95
2022-11-12T19:53:03.286Z,59.55
2022-11-12T19:55:50.389Z,59.30
2022-11-12T19:58:37.670Z,59.28
2022-11-12T20:01:24.531Z,60.90
2022-11-12T20:04:11.974Z,60.08
2022-11-12T20:06:59.144Z,60.63
2022-11-12T20:09:47.705Z,62.40
2022-11-12T20:12:34.854Z,63.72
2022-11-12T20:15:22.120Z,66.78
2022-11-12T20:18:09.325Z,64.72
2022-11-12T20:20:57.963Z,65.90
2022-11-12T20:23:45.847Z,67.15
2022-11-12T20:26:34.224Z,65.25
2022-11-12T20:29:21.286Z,65.30
2022-11-12T20:32:07.740Z,65.25
2022-11-12T20:34:54.832Z,68.28
2022-11-12T20:37:41.704Z,62.10
2022-11-12T20:40:28.530Z,64.57
2022-11-12T20:43:17.833Z,66.72
2022-11-12T20:46:04.937Z,70.68
2022-11-12T20:48:54.020Z,67.43
2022-11-12T20:51:40.887Z,68.35
2022-11-12T20:54:27.515Z,64.18
2022-11-12T20:57:14.466Z,69.25
2022-11-12T21:00:02.987Z,69.70
2022-11-12T21:02:50.112Z,70.53
2022-11-12T21:05:37.380Z,74.40
2022-11-12T21:08:24.629Z,72.45
2022-11-12T21:11:13.554Z,72.72
2022-11-12T21:14:01.092Z,69.53
2022-11-12T21:16:49.591Z,68.72
2022-11-12T21:19:36.768Z,69.63
2022-11-12T21:22:23.903Z,68.57
2022-11-12T21:25:10.790Z,66.70
2022-11-12T21:27:59.003Z,66.70
2022-11-12T21:30:46.114Z,66.38
2022-11-12T21:33:35.034Z,65.03
2022-11-12T21:36:22.150Z,65.38
2022-11-12T21:39:12.055Z,65.07
2022-11-12T21:41:59.217Z,62.50
2022-11-12T21:44:46.539Z,63.47
2022-11-12T21:47:33.476Z,62.33
2022-11-12T21:50:21.958Z,62.35
2022-11-12T21:53:09.179Z,64.80
2022-11-12T21:56:02.540Z,63.65
2022-11-12T21:58:49.401Z,68.22
2022-11-12T22:01:36.745Z,64.35
2022-11-12T22:04:24.084Z,65.95
2022-11-12T22:07:12.510Z,64.57
2022-11-12T22:09:59.799Z,65.28
2022-11-12T22:13:12.048Z,66.30
2022-11-12T22:15:54.466Z,66.93
2022-11-12T22:18:41.628Z,66.32
2022-11-12T22:21:30.685Z,62.92
2022-11-12T22:24:21.527Z,63.60
2022-11-12T22:27:08.277Z,66.63
2022-11-12T22:29:55.828Z,63.90
2022-11-12T22:32:43.016Z,64.32
2022-11-12T22:35:30.177Z,61.38
2022-11-12T22:38:17.212Z,65.97
2022-11-12T22:41:07.229Z,63.25
2022-11-12T22:43:57.007Z,64.07
2022-11-12T22:46:44.055Z,68.20
2022-11-12T22:49:31.188Z,75.50
2022-11-12T22:52:18.158Z,68.80
2022-11-12T22:55:05.616Z,68.50
2022-11-12T22:57:53.714Z,64.82
2022-11-12T23:00:40.723Z,62.58
2022-11-12T23:03:27.745Z,64.38
2022-11-12T23:06:14.501Z,63.38
2022-11-12T23:09:01.958Z,64.53
2022-11-12T23:11:48.838Z,63.05
2022-11-12T23:14:37.055Z,64.10
2022-11-12T23:17:24.180Z,63.53
2022-11-12T23:20:11.591Z,62.03
2022-11-12T23:22:58.772Z,62.88
2022-11-12T23:25:45.642Z,65.57
2022-11-12T23:28:32.625Z,60.75
2022-11-12T23:31:22.930Z,64.55
2022-11-12T23:34:12.536Z,66.70
2022-11-12T23:36:59.692Z,64.45
2022-11-12T23:39:46.677Z,64.30
2022-11-12T23:42:33.786Z,66.30
2022-11-12T23:45:20.564Z,63.42
2022-11-12T23:48:08.820Z,63.38
2022-11-12T23:51:02.698Z,62.97
2022-11-12T23:53:50.110Z,64.85
2022-11-12T23:56:36.804Z,60.08
2022-11-12T23:59:23.563Z,56.58
